Latest Coastal Weather Observations for Edithburgh

IDS60701

Issued at 8:11 pm CDT Friday 20 January 2017 (issued every 10 minutes, with the page automatically refreshed every 10 minutes)

About coastal observations | Map of coastal stations | Coastal observations for SA | Marine services | Other Formats
Station Details ID: 022046 Name: EDITHBURGH Lat: -35.11 Lon: 137.74 Height: 6.0 m
Data from the previous 72 hours. | See also: Recent months at Edithburgh
Date/Time
CDT
Temp
°C
Wind Pressure Rain since
9am
mm
Weather Cloud Vis
km
Sea
Height
m
Swell
Dir  Spd
kts
Gust
kts
hPa Trend Height
m
Period
s
Dir
20/08:00pm 18.4 SSE 13 17 1010.5 - 0.0 - - - - - - -
20/07:30pm 18.8 SSE 14 19 1010.2 - 0.0 - - - - - - -
20/07:00pm 19.1 SE 13 17 1009.8 - 0.0 - - - - - - -
20/06:30pm 20.1 SE 13 18 1009.5 - 0.0 - - - - - - -
20/06:00pm 20.0 SE 15 18 1009.5 - 0.0 - - - - - - -
20/05:30pm 20.7 SSE 13 18 1009.4 - 0.0 - - - - - - -
20/05:00pm 20.9 SSE 15 20 1009.4 - 0.0 - - - - - - -
20/04:30pm 21.3 SSE 13 17 1009.4 - 0.0 - - - - - - -
20/04:00pm 21.2 SSE 13 16 1009.4 - 0.0 - - - - - - -
20/03:30pm 21.1 SSE 13 16 1009.2 - 0.0 - - - - - - -
20/03:00pm 21.5 SSE 13 18 1009.2 - 0.0 - - - - - - -
20/02:30pm 21.1 SSE 15 19 1009.1 - 0.0 - - - - - - -
20/02:00pm 21.3 SSE 16 20 1008.9 - 0.0 - - - - - - -
20/01:30pm 21.2 SSE 16 21 1008.7 - 0.0 - - - - - - -
20/01:00pm 20.8 S 15 21 1008.5 - 0.0 - - - - - - -
20/12:30pm 21.0 S 14 19 1008.4 - 0.0 - - - - - - -
20/12:00pm 19.9 S 13 18 1008.2 - 0.0 - - - - - - -
20/11:30am 20.0 S 17 22 1007.8 - 0.0 - - - - - - -
20/11:00am 19.6 S 19 25 1007.5 - 0.0 - - - - - - -
20/10:30am 18.4 SSW 17 23 1007.2 - 0.0 - - - - - - -
20/10:00am 17.9 SSW 18 24 1006.8 - 0.0 - - - - - - -
20/09:30am 17.5 SSW 20 26 1006.4 - 0.0 - - - - - - -
20/09:00am 18.1 SSW 19 25 1005.7 - 5.8 - - - - - - -
20/08:30am 17.8 SSW 18 24 1005.2 - 5.8 - - - - - - -
20/08:00am 17.5 SSW 17 21 1004.8 - 5.8 - - - - - - -
20/07:30am 17.2 SSW 19 23 1004.1 - 5.8 - - - - - - -
20/07:00am 17.1 SSW 16 22 1003.4 - 5.8 - - - - - - -
20/06:30am 17.1 SSW 19 26 1002.7 - 5.8 - - - - - - -
20/06:00am 17.8 SSW 17 23 1002.0 - 5.8 - - - - - - -
20/05:30am 17.9 SSW 17 22 1001.6 - 5.8 - - - - - - -
20/05:00am 18.3 SW 15 21 1000.9 - 5.8 - - - - - - -
20/04:30am 18.2 SW 14 20 1000.5 - 5.8 - - - - - - -
20/04:00am 18.6 WSW 7 11 1000.2 - 5.8 - - - - - - -
20/03:30am 18.9 WSW 5 6 999.5 - 5.8 - - - - - - -
20/03:00am 18.7 SSW 4 5 999.3 - 5.8 - - - - - - -
20/02:30am 18.8 S 3 4 999.4 - 5.8 - - - - - - -
20/02:00am 18.7 ESE 5 7 999.1 - 5.8 - - - - - - -
20/01:30am 18.4 ESE 6 11 998.9 - 5.8 - - - - - - -
20/01:00am 17.9 ESE 10 14 998.6 - 5.6 - - - - - - -
20/12:30am 18.0 SE 13 17 999.9 - 4.2 - - - - - - -
20/12:00am 17.7 SSE 17 22 999.8 - 4.0 Rain - - - - - -
 
Date/Time
CDT
Temp
°C
Wind Pressure Rain since
9am
mm
Weather Cloud Vis
km
Sea
Height
m
Swell
Dir  Spd
kts
Gust
kts
hPa Trend Height
m
Period
s
Dir
19/11:30pm 17.8 S 22 30 1000.6 - 2.0 - - - - - - -
19/11:22pm 18.1 S 19 30 1001.0 - 1.8 - - - - - - -
19/11:00pm 18.4 S 17 24 1000.8 - 1.4 - - - - - - -
19/10:30pm 18.5 S 17 23 1000.1 - 1.4 - - - - - - -
19/10:00pm 19.2 S 15 22 999.3 - 1.4 - - - - - - -
19/09:30pm 20.8 SSW 16 21 999.6 - 1.0 - - - - - - -
19/09:00pm 23.7 W 12 16 999.6 - 0.8 Recent precip. - - - - - -
19/08:30pm 24.0 NW 15 20 997.9 - 0.8 - - - - - - -
19/08:06pm 23.9 NW 29 45 997.9 - 0.2 - - - - - - -
19/08:03pm 24.7 NNW 23 45 998.1 - 0.0 - - - - - - -
19/08:00pm 25.8 N 14 45 998.0 - 0.0 - - - - - - -
19/07:59pm 26.0 NNE 10 41 998.1 - 0.0 - - - - - - -
19/07:58pm 25.8 NNE 7 27 998.0 - 0.0 - - - - - - -
19/07:30pm 25.3 SE 4 6 995.2 - 0.0 - - - - - - -
19/07:00pm 25.3 S 5 7 996.1 - 0.0 - - - - - - -
19/06:30pm 26.3 SSE 7 9 996.7 - 0.0 - - - - - - -
19/06:00pm 29.0 ESE 9 11 997.0 - 0.0 - - - - - - -
19/05:30pm 28.8 ESE 9 11 997.2 - 0.0 - - - - - - -
19/05:00pm 27.1 SE 9 12 998.4 - 0.0 - - - - - - -
19/04:30pm 26.3 SSE 9 12 999.6 - 0.0 - - - - - - -
19/04:00pm 25.2 SSE 10 13 1000.5 - 0.0 - - - - - - -
19/03:30pm 25.6 SSE 11 14 1001.4 - 0.0 - - - - - - -
19/03:00pm 24.9 SSE 10 12 1002.3 - 0.0 - - - - - - -
19/02:30pm 25.8 SSE 8 11 1003.4 - 0.0 - - - - - - -
19/02:00pm 26.7 SE 9 12 1004.1 - 0.0 - - - - - - -
19/01:30pm 25.2 ESE 8 11 1004.7 - 0.0 - - - - - - -
19/01:00pm 25.0 ESE 8 10 1005.4 - 0.0 - - - - - - -
19/12:30pm 23.3 E 9 12 1006.2 - 0.0 - - - - - - -
19/12:00pm 22.9 E 8 10 1006.6 - 0.0 - - - - - - -
19/11:30am 21.6 E 9 12 1007.2 - 0.0 - - - - - - -
19/11:00am 21.6 E 11 14 1007.1 - 0.0 - - - - - - -
19/10:30am 21.6 E 11 14 1007.7 - 0.0 - - - - - - -
19/10:00am 21.4 ESE 8 10 1008.6 - 0.0 - - - - - - -
19/09:30am 21.3 ESE 8 10 1009.0 - 0.0 - - - - - - -
19/09:00am 20.9 E 8 12 1009.0 - 0.0 - - - - - - -
19/08:30am 20.3 E 9 12 1008.9 - 0.0 - - - - - - -
19/08:00am 20.2 E 10 13 1009.0 - 0.0 - - - - - - -
19/07:30am 20.0 E 13 16 1009.0 - 0.0 - - - - - - -
19/07:00am 20.0 ESE 13 16 1009.1 - 0.0 - - - - - - -
19/06:30am 19.2 ESE 11 14 1009.6 - 0.0 - - - - - - -
19/06:00am 19.0 ESE 11 14 1009.4 - 0.0 - - - - - - -
19/05:30am 18.9 ESE 10 14 1009.2 - 0.0 - - - - - - -
19/05:00am 18.9 ESE 10 14 1009.5 - 0.0 - - - - - - -
19/04:30am 18.9 ESE 12 15 1009.6 - 0.0 - - - - - - -
19/04:00am 18.8 SE 11 15 1010.0 - 0.0 - - - - - - -
19/03:30am 18.7 SE 12 15 1010.2 - 0.0 - - - - - - -
19/03:00am 18.6 ESE 12 16 1010.6 - 0.0 - - - - - - -
19/02:30am 18.4 ESE 12 16 1011.0 - 0.0 - - - - - - -
19/02:00am 18.3 SE 14 19 1011.4 - 0.0 - - - - - - -
19/01:30am 18.2 SE 15 19 1011.9 - 0.0 - - - - - - -
19/01:00am 18.1 SE 16 21 1012.4 - 0.0 - - - - - - -
19/12:30am 18.2 SE 15 20 1012.7 - 0.0 - - - - - - -
19/12:00am 18.2 SE 15 19 1013.0 - 0.0 - - - - - - -
 
Date/Time
CDT
Temp
°C
Wind Pressure Rain since
9am
mm
Weather Cloud Vis
km
Sea
Height
m
Swell
Dir  Spd
kts
Gust
kts
hPa Trend Height
m
Period
s
Dir
18/11:30pm 18.0 SE 15 19 1013.4 - 0.0 - - - - - - -
18/11:00pm 18.0 SE 16 20 1013.7 - 0.0 - - - - - - -
18/10:30pm 18.0 SE 16 21 1013.8 - 0.0 - - - - - - -
18/10:00pm 18.0 SE 17 22 1013.6 - 0.0 - - - - - - -
18/09:30pm 18.0 SE 19 23 1013.5 - 0.0 - - - - - - -
18/09:00pm 18.1 SE 17 21 1013.6 - 0.0 - - - - - - -
18/08:30pm 18.4 SSE 17 23 1013.6 - 0.0 - - - - - - -
18/08:00pm 18.5 SE 17 23 1013.7 - 0.0 - - - - - - -
18/07:30pm 18.9 SSE 17 23 1013.7 - 0.0 - - - - - - -
18/07:00pm 19.1 SSE 17 21 1013.5 - 0.0 - - - - - - -
18/06:30pm 19.7 SE 18 22 1013.1 - 0.0 - - - - - - -
18/06:00pm 19.9 SE 17 22 1013.2 - 0.0 - - - - - - -
18/05:30pm 20.4 SE 17 21 1013.3 - 0.0 - - - - - - -
18/05:00pm 20.6 SSE 17 23 1013.6 - 0.0 - - - - - - -
18/04:30pm 20.9 SSE 16 22 1014.0 - 0.0 - - - - - - -
18/04:00pm 20.4 SSE 17 22 1014.3 - 0.0 - - - - - - -
18/03:30pm 21.1 SE 15 20 1014.6 - 0.0 - - - - - - -
18/03:00pm 22.0 SE 16 20 1014.9 - 0.0 - - - - - - -
18/02:30pm 23.0 SSE 15 21 1014.9 - 0.0 - - - - - - -
18/02:00pm 21.7 SSE 17 23 1015.0 - 0.0 - - - - - - -
18/01:30pm 22.5 SSE 16 21 1015.4 - 0.0 - - - - - - -
18/01:00pm 22.5 SSE 16 22 1015.6 - 0.0 - - - - - - -
18/12:30pm 21.9 SE 14 19 1015.8 - 0.0 - - - - - - -
18/12:00pm 20.8 SE 13 17 1015.9 - 0.0 - - - - - - -
18/11:30am 20.4 SE 15 21 1015.8 - 0.0 - - - - - - -
18/11:00am 20.1 SE 14 18 1016.5 - 0.0 - - - - - - -
18/10:30am 19.6 SE 14 19 1016.0 - 0.0 - - - - - - -
18/10:00am 19.3 SE 14 18 1016.6 - 0.0 - - - - - - -
18/09:30am 18.8 SE 15 20 1016.4 - 0.0 - - - - - - -
18/09:00am 18.2 SE 15 19 1016.1 - 0.0 - - - - - - -
18/08:30am 18.1 SE 16 21 1016.0 - 0.0 - - - - - - -
18/08:00am 17.7 SE 17 25 1015.9 - 0.0 - - - - - - -
18/07:30am 17.7 SSE 19 26 1015.2 - 0.0 - - - - - - -
18/07:00am 17.5 SSE 19 25 1015.0 - 0.0 - - - - - - -
18/06:30am 17.4 SSE 17 23 1014.5 - 0.0 - - - - - - -
18/06:00am 17.5 SSE 17 21 1013.9 - 0.0 - - - - - - -
18/05:30am 17.7 SSE 19 25 1012.8 - 0.0 - - - - - - -
18/05:00am 17.9 SSE 19 26 1012.2 - 0.0 - - - - - - -
18/04:30am 18.1 SSE 18 23 1011.5 - 0.0 - - - - - - -
18/04:00am 18.4 SSE 16 22 1011.0 - 0.0 - - - - - - -
18/03:30am 18.6 SSE 16 24 1010.9 - 0.0 - - - - - - -
18/03:00am 18.5 SSE 19 24 1011.1 - 0.0 - - - - - - -
18/02:30am 18.9 SSE 16 21 1011.3 - 0.0 - - - - - - -
18/02:00am 19.0 SSE 16 21 1011.4 - 0.0 - - - - - - -
18/01:30am 19.1 SSE 17 22 1011.5 - 0.0 - - - - - - -
18/01:00am 19.1 SSE 17 21 1011.6 - 0.0 - - - - - - -
18/12:30am 19.3 SSE 18 24 1011.4 - 0.0 - - - - - - -
18/12:00am 19.3 SSE 17 24 1011.4 - 0.0 - - - - - - -
 
Date/Time
CDT
Temp
°C
Wind Pressure Rain since
9am
mm
Weather Cloud Vis
km
Sea
Height
m
Swell
Dir  Spd
kts
Gust
kts
hPa Trend Height
m
Period
s
Dir
17/11:30pm 19.7 SSE 18 26 1011.6 - 0.0 - - - - - - -
17/11:00pm 19.8 SSE 17 23 1012.0 - 0.0 - - - - - - -
17/10:30pm 19.7 SSE 17 23 1011.1 - 0.0 - - - - - - -
17/10:00pm 19.4 SE 20 24 1011.0 - 0.0 - - - - - - -
17/09:30pm 19.5 SSE 19 27 1010.8 - 0.0 - - - - - - -
17/09:00pm 19.5 SSE 25 33 1010.6 - 0.0 - - - - - - -
17/08:30pm 20.2 S 24 35 1010.6 - 0.0 - - - - - - -

Other Formats:

Comma delimited format used in spreadsheet applications
http://www.bom.gov.au/fwo/IDS60701/IDS60701.94809.axf

JavaScript Object Notation format (JSON) in row-major order
http://www.bom.gov.au/fwo/IDS60701/IDS60701.94809.json